Portada
METAR-TAF:

METAR-TAF

Aeroports :

Aeroport de Rabat

Rabat, Marroc

latitud: 34-03N, longitud: 006-46W, altitud: 84 m

Observació

L'informe es va fer fa 49 minuts, a les 08:00 UTC
Vent 3 kt del Oest/Sud-Oest, variant entre Sud i Oest/Nord-Oest
Temperatura 22°C
Humitat 94%
Pressió 1014 hPa
Visibilitat: 2500 m
Núvols disperses a una alçada de 400 ft
boirina

METAR: GMME 240800Z 24003KT 190V290 2500 BR SCT004 22/21 Q1014 NOSIG

Hora: 09:49 (08:49 UTC)

Pronòstic

L'informe es va fer fa 3 hores i 49 minuts, a les 05:00 UTC
Pronòstic vàlid del 24 a les 06 UTC al 25 a les 12 UTC
Vent 4 kt del Sud/Sud-Oest
Visibilitat: 8000 m
Núvols disperses a una alçada de 1500 ft
Temporalment
l' 24 a les 12 UTC al 24 a les 18 UTC
Vent 8 kt del Oest
Visibilitat 10 km o més
sense núvols per sota de 1500 mi sense presència de cumulonimbus.

TAF: GMME 240500Z 2406/2512 20004KT 8000 SCT015 TEMPO 2412/2418 26008KT CAVOK

Observacions i pronòstics meteorològics de més de 4000 aeroports (METAR i TAF).

Les estacions disponibles són els punts grocs i vermells al mapa.

Posi el ratolí al punt desitjat per veure el nom de l'estació.

Feu clic per veure les observacions i els pronòstics meteorològics.

Per canviar el mapa: feu clic els botons verds amb una creu de color negre per apropar; al botó verd amb un guió per allunyar la imatge; o en les fletxes verdes per a mapes adjacents.


METAR-TAF: